sensor_id;sensor_type;location;lat;lon;timestamp;P1;durP1;ratioP1;P2;durP2;ratioP2
7432;SDS011;32233;49.500;7.764;2022-10-16T00:00:52;1.03;;;0.60;;
7432;SDS011;32233;49.500;7.764;2022-10-16T00:03:19;1.93;;;0.80;;
7432;SDS011;32233;49.500;7.764;2022-10-16T00:05:45;1.60;;;0.57;;
7432;SDS011;32233;49.500;7.764;2022-10-16T00:08:12;0.87;;;0.60;;
7432;SDS011;32233;49.500;7.764;2022-10-16T00:10:39;0.67;;;0.50;;
7432;SDS011;32233;49.500;7.764;2022-10-16T00:13:07;1.23;;;0.70;;
7432;SDS011;32233;49.500;7.764;2022-10-16T00:15:35;2.13;;;0.60;;
7432;SDS011;32233;49.500;7.764;2022-10-16T00:18:03;1.70;;;0.50;;
7432;SDS011;32233;49.500;7.764;2022-10-16T00:20:33;3.80;;;0.67;;
7432;SDS011;32233;49.500;7.764;2022-10-16T00:23:00;1.47;;;0.57;;
7432;SDS011;32233;49.500;7.764;2022-10-16T00:25:27;2.30;;;0.60;;
7432;SDS011;32233;49.500;7.764;2022-10-16T00:27:53;0.90;;;0.60;;
7432;SDS011;32233;49.500;7.764;2022-10-16T00:30:20;1.23;;;0.63;;
7432;SDS011;32233;49.500;7.764;2022-10-16T00:32:46;1.70;;;0.80;;
7432;SDS011;32233;49.500;7.764;2022-10-16T00:35:13;1.97;;;0.67;;
7432;SDS011;32233;49.500;7.764;2022-10-16T00:37:39;1.97;;;0.90;;
7432;SDS011;32233;49.500;7.764;2022-10-16T00:40:06;1.73;;;0.90;;
7432;SDS011;32233;49.500;7.764;2022-10-16T00:42:33;0.93;;;0.80;;
7432;SDS011;32233;49.500;7.764;2022-10-16T00:44:59;0.83;;;0.83;;
7432;SDS011;32233;49.500;7.764;2022-10-16T00:47:28;2.70;;;0.90;;
7432;SDS011;32233;49.500;7.764;2022-10-16T00:50:11;1.40;;;0.70;;
7432;SDS011;32233;49.500;7.764;2022-10-16T00:52:46;1.77;;;0.77;;
7432;SDS011;32233;49.500;7.764;2022-10-16T00:55:15;1.13;;;0.60;;
7432;SDS011;32233;49.500;7.764;2022-10-16T00:57:42;1.70;;;0.70;;
7432;SDS011;32233;49.500;7.764;2022-10-16T01:00:11;3.07;;;0.50;;
7432;SDS011;32233;49.500;7.764;2022-10-16T01:02:39;1.63;;;0.50;;
7432;SDS011;32233;49.500;7.764;2022-10-16T01:05:06;0.90;;;0.50;;
7432;SDS011;32233;49.500;7.764;2022-10-16T01:12:49;4.07;;;0.70;;
7432;SDS011;32233;49.500;7.764;2022-10-16T01:18:05;0.90;;;0.60;;
7432;SDS011;32233;49.500;7.764;2022-10-16T01:21:24;1.47;;;0.70;;
7432;SDS011;32233;49.500;7.764;2022-10-16T01:31:36;1.07;;;0.60;;
7432;SDS011;32233;49.500;7.764;2022-10-16T01:34:12;0.50;;;0.50;;
7432;SDS011;32233;49.500;7.764;2022-10-16T01:36:56;2.63;;;0.90;;
7432;SDS011;32233;49.500;7.764;2022-10-16T01:39:29;2.33;;;0.60;;
7432;SDS011;32233;49.500;7.764;2022-10-16T01:42:00;2.57;;;0.80;;
7432;SDS011;32233;49.500;7.764;2022-10-16T01:44:37;3.10;;;1.00;;
7432;SDS011;32233;49.500;7.764;2022-10-16T01:47:05;2.77;;;0.83;;
7432;SDS011;32233;49.500;7.764;2022-10-16T01:49:36;2.30;;;0.90;;
7432;SDS011;32233;49.500;7.764;2022-10-16T01:52:06;1.33;;;0.90;;
7432;SDS011;32233;49.500;7.764;2022-10-16T01:54:37;0.80;;;0.80;;
7432;SDS011;32233;49.500;7.764;2022-10-16T01:57:08;2.50;;;0.80;;
7432;SDS011;32233;49.500;7.764;2022-10-16T01:59:40;2.17;;;0.90;;
7432;SDS011;32233;49.500;7.764;2022-10-16T02:02:10;2.13;;;1.40;;
7432;SDS011;32233;49.500;7.764;2022-10-16T02:04:42;1.70;;;1.40;;
7432;SDS011;32233;49.500;7.764;2022-10-16T02:07:11;1.20;;;1.10;;
7432;SDS011;32233;49.500;7.764;2022-10-16T02:09:38;2.17;;;1.40;;
7432;SDS011;32233;49.500;7.764;2022-10-16T02:12:10;2.50;;;1.30;;
7432;SDS011;32233;49.500;7.764;2022-10-16T02:14:41;2.00;;;1.77;;
7432;SDS011;32233;49.500;7.764;2022-10-16T02:17:12;2.73;;;1.57;;
7432;SDS011;32233;49.500;7.764;2022-10-16T02:19:40;4.10;;;1.40;;
7432;SDS011;32233;49.500;7.764;2022-10-16T02:22:08;2.83;;;1.33;;
7432;SDS011;32233;49.500;7.764;2022-10-16T02:30:28;1.30;;;0.90;;
7432;SDS011;32233;49.500;7.764;2022-10-16T02:33:00;0.93;;;0.60;;
7432;SDS011;32233;49.500;7.764;2022-10-16T02:35:30;3.00;;;1.00;;
7432;SDS011;32233;49.500;7.764;2022-10-16T02:37:58;1.97;;;1.10;;
7432;SDS011;32233;49.500;7.764;2022-10-16T02:40:25;1.20;;;1.10;;
7432;SDS011;32233;49.500;7.764;2022-10-16T02:42:53;1.77;;;1.13;;
7432;SDS011;32233;49.500;7.764;2022-10-16T02:45:21;1.33;;;1.23;;
7432;SDS011;32233;49.500;7.764;2022-10-16T02:47:48;2.93;;;1.40;;
7432;SDS011;32233;49.500;7.764;2022-10-16T02:50:15;3.83;;;1.40;;
7432;SDS011;32233;49.500;7.764;2022-10-16T02:52:42;2.60;;;1.20;;
7432;SDS011;32233;49.500;7.764;2022-10-16T02:55:09;1.63;;;1.53;;
7432;SDS011;32233;49.500;7.764;2022-10-16T02:57:35;1.57;;;1.47;;
7432;SDS011;32233;49.500;7.764;2022-10-16T03:00:04;1.73;;;1.60;;
7432;SDS011;32233;49.500;7.764;2022-10-16T03:02:31;2.90;;;1.67;;
7432;SDS011;32233;49.500;7.764;2022-10-16T03:04:57;3.03;;;1.40;;
7432;SDS011;32233;49.500;7.764;2022-10-16T03:07:24;1.70;;;1.60;;
7432;SDS011;32233;49.500;7.764;2022-10-16T03:09:51;3.47;;;1.60;;
7432;SDS011;32233;49.500;7.764;2022-10-16T03:12:17;3.10;;;1.57;;
7432;SDS011;32233;49.500;7.764;2022-10-16T03:14:44;3.13;;;1.40;;
7432;SDS011;32233;49.500;7.764;2022-10-16T03:17:10;4.50;;;1.60;;
7432;SDS011;32233;49.500;7.764;2022-10-16T03:19:37;2.63;;;1.20;;
7432;SDS011;32233;49.500;7.764;2022-10-16T03:22:03;2.60;;;1.37;;
7432;SDS011;32233;49.500;7.764;2022-10-16T03:24:30;2.07;;;1.53;;
7432;SDS011;32233;49.500;7.764;2022-10-16T03:26:56;2.13;;;1.57;;
7432;SDS011;32233;49.500;7.764;2022-10-16T03:29:23;4.10;;;1.90;;
7432;SDS011;32233;49.500;7.764;2022-10-16T03:31:51;2.57;;;1.73;;
7432;SDS011;32233;49.500;7.764;2022-10-16T03:34:18;2.20;;;1.57;;
7432;SDS011;32233;49.500;7.764;2022-10-16T03:36:44;2.87;;;1.70;;
7432;SDS011;32233;49.500;7.764;2022-10-16T03:39:11;2.57;;;1.70;;
7432;SDS011;32233;49.500;7.764;2022-10-16T03:41:37;2.80;;;1.50;;
7432;SDS011;32233;49.500;7.764;2022-10-16T03:44:04;2.27;;;1.67;;
7432;SDS011;32233;49.500;7.764;2022-10-16T03:46:30;3.33;;;1.93;;
7432;SDS011;32233;49.500;7.764;2022-10-16T03:48:57;2.93;;;2.17;;
7432;SDS011;32233;49.500;7.764;2022-10-16T03:51:23;3.13;;;1.87;;
7432;SDS011;32233;49.500;7.764;2022-10-16T03:53:50;2.93;;;2.40;;
7432;SDS011;32233;49.500;7.764;2022-10-16T03:56:16;2.27;;;2.03;;
7432;SDS011;32233;49.500;7.764;2022-10-16T03:58:43;2.27;;;1.80;;
7432;SDS011;32233;49.500;7.764;2022-10-16T04:01:09;2.73;;;1.60;;
7432;SDS011;32233;49.500;7.764;2022-10-16T04:03:36;2.40;;;1.70;;
7432;SDS011;32233;49.500;7.764;2022-10-16T04:06:02;4.00;;;1.90;;
7432;SDS011;32233;49.500;7.764;2022-10-16T04:08:29;1.73;;;1.50;;
7432;SDS011;32233;49.500;7.764;2022-10-16T04:10:55;1.70;;;1.60;;
7432;SDS011;32233;49.500;7.764;2022-10-16T04:13:22;1.23;;;1.17;;
7432;SDS011;32233;49.500;7.764;2022-10-16T04:15:49;2.90;;;1.30;;
7432;SDS011;32233;49.500;7.764;2022-10-16T04:18:15;2.70;;;1.40;;
7432;SDS011;32233;49.500;7.764;2022-10-16T04:20:41;2.67;;;1.47;;
7432;SDS011;32233;49.500;7.764;2022-10-16T04:23:08;1.77;;;1.67;;
7432;SDS011;32233;49.500;7.764;2022-10-16T04:25:34;4.90;;;1.70;;
7432;SDS011;32233;49.500;7.764;2022-10-16T04:28:01;5.63;;;2.00;;
7432;SDS011;32233;49.500;7.764;2022-10-16T04:30:27;2.33;;;2.23;;
7432;SDS011;32233;49.500;7.764;2022-10-16T04:32:54;4.33;;;2.40;;
7432;SDS011;32233;49.500;7.764;2022-10-16T04:35:21;4.37;;;2.40;;
7432;SDS011;32233;49.500;7.764;2022-10-16T04:37:48;3.93;;;1.73;;
7432;SDS011;32233;49.500;7.764;2022-10-16T04:40:15;4.63;;;2.63;;
7432;SDS011;32233;49.500;7.764;2022-10-16T04:42:41;3.20;;;1.80;;
7432;SDS011;32233;49.500;7.764;2022-10-16T04:45:08;2.60;;;2.00;;
7432;SDS011;32233;49.500;7.764;2022-10-16T04:47:40;2.57;;;1.80;;
7432;SDS011;32233;49.500;7.764;2022-10-16T04:50:06;1.63;;;1.53;;
7432;SDS011;32233;49.500;7.764;2022-10-16T04:52:33;2.17;;;1.40;;
7432;SDS011;32233;49.500;7.764;2022-10-16T04:55:05;2.00;;;1.83;;
7432;SDS011;32233;49.500;7.764;2022-10-16T04:57:32;3.37;;;1.60;;
7432;SDS011;32233;49.500;7.764;2022-10-16T04:59:59;2.83;;;1.60;;
7432;SDS011;32233;49.500;7.764;2022-10-16T05:02:26;2.60;;;1.60;;
7432;SDS011;32233;49.500;7.764;2022-10-16T05:04:52;5.03;;;1.63;;
7432;SDS011;32233;49.500;7.764;2022-10-16T05:07:19;1.80;;;1.70;;
7432;SDS011;32233;49.500;7.764;2022-10-16T05:09:45;3.80;;;1.63;;
7432;SDS011;32233;49.500;7.764;2022-10-16T05:12:12;2.47;;;1.30;;
7432;SDS011;32233;49.500;7.764;2022-10-16T05:14:38;1.90;;;1.40;;
7432;SDS011;32233;49.500;7.764;2022-10-16T05:17:05;1.40;;;1.30;;
7432;SDS011;32233;49.500;7.764;2022-10-16T05:19:31;2.50;;;1.40;;
7432;SDS011;32233;49.500;7.764;2022-10-16T05:21:58;2.07;;;1.27;;
7432;SDS011;32233;49.500;7.764;2022-10-16T05:24:25;1.23;;;1.13;;
7432;SDS011;32233;49.500;7.764;2022-10-16T05:26:51;1.20;;;1.10;;
7432;SDS011;32233;49.500;7.764;2022-10-16T05:29:18;2.53;;;0.90;;
7432;SDS011;32233;49.500;7.764;2022-10-16T05:31:45;1.77;;;0.90;;
7432;SDS011;32233;49.500;7.764;2022-10-16T05:34:11;0.83;;;0.83;;
7432;SDS011;32233;49.500;7.764;2022-10-16T05:36:38;1.70;;;1.60;;
7432;SDS011;32233;49.500;7.764;2022-10-16T05:39:05;1.33;;;1.10;;
7432;SDS011;32233;49.500;7.764;2022-10-16T05:41:31;6.93;;;2.37;;
7432;SDS011;32233;49.500;7.764;2022-10-16T05:43:58;4.30;;;1.70;;
7432;SDS011;32233;49.500;7.764;2022-10-16T05:46:24;2.97;;;2.17;;
7432;SDS011;32233;49.500;7.764;2022-10-16T05:48:51;2.80;;;2.60;;
7432;SDS011;32233;49.500;7.764;2022-10-16T05:51:19;5.00;;;2.60;;
7432;SDS011;32233;49.500;7.764;2022-10-16T05:53:45;4.73;;;3.27;;
7432;SDS011;32233;49.500;7.764;2022-10-16T05:56:12;5.57;;;3.10;;
7432;SDS011;32233;49.500;7.764;2022-10-16T05:58:39;6.40;;;3.10;;
7432;SDS011;32233;49.500;7.764;2022-10-16T06:01:11;5.20;;;3.03;;
7432;SDS011;32233;49.500;7.764;2022-10-16T06:03:43;4.70;;;2.60;;
7432;SDS011;32233;49.500;7.764;2022-10-16T06:06:10;4.67;;;1.83;;
7432;SDS011;32233;49.500;7.764;2022-10-16T06:08:41;4.57;;;1.70;;
7432;SDS011;32233;49.500;7.764;2022-10-16T06:11:10;3.93;;;1.60;;
7432;SDS011;32233;49.500;7.764;2022-10-16T06:13:38;3.23;;;2.20;;
7432;SDS011;32233;49.500;7.764;2022-10-16T06:16:08;1.90;;;1.77;;
7432;SDS011;32233;49.500;7.764;2022-10-16T06:18:36;3.50;;;1.70;;
7432;SDS011;32233;49.500;7.764;2022-10-16T06:21:07;3.20;;;1.70;;
7432;SDS011;32233;49.500;7.764;2022-10-16T06:23:35;1.93;;;1.53;;
7432;SDS011;32233;49.500;7.764;2022-10-16T06:26:12;5.27;;;1.70;;
7432;SDS011;32233;49.500;7.764;2022-10-16T06:28:39;2.73;;;1.50;;
7432;SDS011;32233;49.500;7.764;2022-10-16T06:31:07;3.30;;;1.80;;
7432;SDS011;32233;49.500;7.764;2022-10-16T06:33:35;4.03;;;1.60;;
7432;SDS011;32233;49.500;7.764;2022-10-16T06:38:30;3.23;;;1.70;;
7432;SDS011;32233;49.500;7.764;2022-10-16T06:40:57;4.63;;;1.60;;
7432;SDS011;32233;49.500;7.764;2022-10-16T06:43:24;2.43;;;1.47;;
7432;SDS011;32233;49.500;7.764;2022-10-16T06:45:54;4.50;;;1.40;;
7432;SDS011;32233;49.500;7.764;2022-10-16T06:48:22;2.20;;;1.30;;
7432;SDS011;32233;49.500;7.764;2022-10-16T06:53:35;2.33;;;1.00;;
7432;SDS011;32233;49.500;7.764;2022-10-16T06:56:18;1.47;;;1.17;;
7432;SDS011;32233;49.500;7.764;2022-10-16T06:58:45;1.47;;;1.23;;
7432;SDS011;32233;49.500;7.764;2022-10-16T07:01:12;1.40;;;1.30;;
7432;SDS011;32233;49.500;7.764;2022-10-16T07:03:40;1.83;;;1.43;;
7432;SDS011;32233;49.500;7.764;2022-10-16T07:06:09;2.83;;;1.53;;
7432;SDS011;32233;49.500;7.764;2022-10-16T07:08:37;2.37;;;1.47;;
7432;SDS011;32233;49.500;7.764;2022-10-16T07:11:06;1.33;;;1.23;;
7432;SDS011;32233;49.500;7.764;2022-10-16T07:13:38;1.50;;;1.33;;
7432;SDS011;32233;49.500;7.764;2022-10-16T07:16:13;1.47;;;1.37;;
7432;SDS011;32233;49.500;7.764;2022-10-16T07:18:44;3.83;;;1.70;;
7432;SDS011;32233;49.500;7.764;2022-10-16T07:21:13;2.27;;;1.80;;
7432;SDS011;32233;49.500;7.764;2022-10-16T07:23:44;4.20;;;2.00;;
7432;SDS011;32233;49.500;7.764;2022-10-16T07:26:11;4.33;;;1.97;;
7432;SDS011;32233;49.500;7.764;2022-10-16T07:28:38;2.20;;;1.77;;
7432;SDS011;32233;49.500;7.764;2022-10-16T07:31:07;3.63;;;1.97;;
7432;SDS011;32233;49.500;7.764;2022-10-16T07:33:37;2.80;;;1.83;;
7432;SDS011;32233;49.500;7.764;2022-10-16T07:36:05;2.60;;;1.70;;
7432;SDS011;32233;49.500;7.764;2022-10-16T07:38:32;3.23;;;1.60;;
7432;SDS011;32233;49.500;7.764;2022-10-16T07:41:03;1.70;;;1.60;;
7432;SDS011;32233;49.500;7.764;2022-10-16T07:43:30;2.23;;;1.90;;
7432;SDS011;32233;49.500;7.764;2022-10-16T07:45:57;3.50;;;1.90;;
7432;SDS011;32233;49.500;7.764;2022-10-16T07:48:29;3.83;;;1.90;;
7432;SDS011;32233;49.500;7.764;2022-10-16T07:50:58;5.57;;;2.33;;
7432;SDS011;32233;49.500;7.764;2022-10-16T07:53:25;3.93;;;2.00;;
7432;SDS011;32233;49.500;7.764;2022-10-16T07:55:57;6.07;;;2.20;;
7432;SDS011;32233;49.500;7.764;2022-10-16T07:58:25;3.80;;;2.70;;
7432;SDS011;32233;49.500;7.764;2022-10-16T08:00:52;4.17;;;3.73;;
7432;SDS011;32233;49.500;7.764;2022-10-16T08:03:18;5.93;;;4.00;;
7432;SDS011;32233;49.500;7.764;2022-10-16T08:05:45;4.53;;;4.17;;
7432;SDS011;32233;49.500;7.764;2022-10-16T08:08:15;5.13;;;4.60;;
7432;SDS011;32233;49.500;7.764;2022-10-16T08:10:42;4.73;;;4.23;;
7432;SDS011;32233;49.500;7.764;2022-10-16T08:13:09;5.03;;;4.50;;
7432;SDS011;32233;49.500;7.764;2022-10-16T08:15:36;3.23;;;2.90;;
7432;SDS011;32233;49.500;7.764;2022-10-16T08:18:03;4.10;;;2.47;;
7432;SDS011;32233;49.500;7.764;2022-10-16T08:20:31;4.53;;;2.63;;
7432;SDS011;32233;49.500;7.764;2022-10-16T08:22:59;3.70;;;3.40;;
7432;SDS011;32233;49.500;7.764;2022-10-16T08:25:27;3.30;;;3.00;;
7432;SDS011;32233;49.500;7.764;2022-10-16T08:27:54;3.73;;;3.00;;
7432;SDS011;32233;49.500;7.764;2022-10-16T08:30:21;1.77;;;1.67;;
7432;SDS011;32233;49.500;7.764;2022-10-16T08:32:49;1.70;;;1.60;;
7432;SDS011;32233;49.500;7.764;2022-10-16T08:35:16;2.83;;;2.63;;
7432;SDS011;32233;49.500;7.764;2022-10-16T08:37:42;3.10;;;2.33;;
7432;SDS011;32233;49.500;7.764;2022-10-16T08:40:20;2.57;;;2.37;;
7432;SDS011;32233;49.500;7.764;2022-10-16T08:48:58;6.40;;;5.47;;
7432;SDS011;32233;49.500;7.764;2022-10-16T08:51:27;5.90;;;5.37;;
7432;SDS011;32233;49.500;7.764;2022-10-16T08:53:57;5.47;;;5.07;;
7432;SDS011;32233;49.500;7.764;2022-10-16T08:56:27;4.40;;;4.10;;
7432;SDS011;32233;49.500;7.764;2022-10-16T08:58:54;3.90;;;3.60;;
7432;SDS011;32233;49.500;7.764;2022-10-16T09:01:38;3.23;;;2.93;;
7432;SDS011;32233;49.500;7.764;2022-10-16T09:04:30;2.40;;;2.20;;
7432;SDS011;32233;49.500;7.764;2022-10-16T09:12:36;3.07;;;2.50;;
7432;SDS011;32233;49.500;7.764;2022-10-16T09:20:42;2.97;;;2.30;;
7432;SDS011;32233;49.500;7.764;2022-10-16T09:23:19;2.50;;;1.83;;
7432;SDS011;32233;49.500;7.764;2022-10-16T09:25:57;5.13;;;2.90;;
7432;SDS011;32233;49.500;7.764;2022-10-16T09:28:24;3.37;;;2.60;;
7432;SDS011;32233;49.500;7.764;2022-10-16T09:30:51;1.30;;;1.20;;
7432;SDS011;32233;49.500;7.764;2022-10-16T09:33:21;2.03;;;1.93;;
7432;SDS011;32233;49.500;7.764;2022-10-16T09:35:53;3.57;;;2.20;;
7432;SDS011;32233;49.500;7.764;2022-10-16T09:38:23;2.97;;;1.93;;
7432;SDS011;32233;49.500;7.764;2022-10-16T09:41:13;3.60;;;3.20;;
7432;SDS011;32233;49.500;7.764;2022-10-16T09:43:42;2.20;;;1.73;;
7432;SDS011;32233;49.500;7.764;2022-10-16T09:48:55;5.97;;;2.80;;
7432;SDS011;32233;49.500;7.764;2022-10-16T09:51:27;4.30;;;3.97;;
7432;SDS011;32233;49.500;7.764;2022-10-16T09:53:56;5.47;;;3.33;;
7432;SDS011;32233;49.500;7.764;2022-10-16T09:56:26;3.93;;;3.20;;
7432;SDS011;32233;49.500;7.764;2022-10-16T09:58:55;4.60;;;2.90;;
7432;SDS011;32233;49.500;7.764;2022-10-16T10:01:26;5.87;;;5.33;;
7432;SDS011;32233;49.500;7.764;2022-10-16T10:03:57;5.73;;;2.60;;
7432;SDS011;32233;49.500;7.764;2022-10-16T10:06:40;7.87;;;6.53;;
7432;SDS011;32233;49.500;7.764;2022-10-16T10:12:04;12.10;;;9.70;;
7432;SDS011;32233;49.500;7.764;2022-10-16T10:14:35;5.00;;;2.70;;
7432;SDS011;32233;49.500;7.764;2022-10-16T10:19:40;5.83;;;4.53;;
7432;SDS011;32233;49.500;7.764;2022-10-16T10:30:10;5.50;;;2.47;;
7432;SDS011;32233;49.500;7.764;2022-10-16T10:35:48;6.80;;;4.37;;
7432;SDS011;32233;49.500;7.764;2022-10-16T10:43:49;9.57;;;8.53;;
7432;SDS011;32233;49.500;7.764;2022-10-16T10:46:46;12.27;;;8.37;;
7432;SDS011;32233;49.500;7.764;2022-10-16T10:49:25;9.03;;;6.43;;
7432;SDS011;32233;49.500;7.764;2022-10-16T10:51:58;10.87;;;9.57;;
7432;SDS011;32233;49.500;7.764;2022-10-16T10:54:35;11.40;;;10.33;;
7432;SDS011;32233;49.500;7.764;2022-10-16T10:57:16;4.87;;;3.97;;
7432;SDS011;32233;49.500;7.764;2022-10-16T10:59:57;2.73;;;2.50;;
7432;SDS011;32233;49.500;7.764;2022-10-16T11:02:38;4.40;;;2.80;;
7432;SDS011;32233;49.500;7.764;2022-10-16T11:08:04;3.83;;;2.93;;
7432;SDS011;32233;49.500;7.764;2022-10-16T11:10:42;3.70;;;3.23;;
7432;SDS011;32233;49.500;7.764;2022-10-16T11:13:16;5.77;;;5.17;;
7432;SDS011;32233;49.500;7.764;2022-10-16T11:15:48;4.60;;;3.50;;
7432;SDS011;32233;49.500;7.764;2022-10-16T11:18:55;3.27;;;2.50;;
7432;SDS011;32233;49.500;7.764;2022-10-16T11:21:29;6.53;;;4.97;;
7432;SDS011;32233;49.500;7.764;2022-10-16T11:24:01;8.20;;;6.50;;
7432;SDS011;32233;49.500;7.764;2022-10-16T11:26:39;4.47;;;3.50;;
7432;SDS011;32233;49.500;7.764;2022-10-16T11:29:20;4.07;;;2.63;;
7432;SDS011;32233;49.500;7.764;2022-10-16T11:31:59;2.70;;;2.00;;
7432;SDS011;32233;49.500;7.764;2022-10-16T11:34:50;2.90;;;1.80;;
7432;SDS011;32233;49.500;7.764;2022-10-16T11:37:24;5.00;;;1.83;;
7432;SDS011;32233;49.500;7.764;2022-10-16T11:39:58;1.70;;;1.53;;
7432;SDS011;32233;49.500;7.764;2022-10-16T11:42:44;6.43;;;1.33;;
7432;SDS011;32233;49.500;7.764;2022-10-16T11:45:29;2.83;;;1.70;;
7432;SDS011;32233;49.500;7.764;2022-10-16T11:50:52;2.33;;;1.47;;
7432;SDS011;32233;49.500;7.764;2022-10-16T11:53:35;1.60;;;1.50;;
7432;SDS011;32233;49.500;7.764;2022-10-16T11:56:15;1.50;;;1.40;;
7432;SDS011;32233;49.500;7.764;2022-10-16T12:01:33;3.13;;;2.43;;
7432;SDS011;32233;49.500;7.764;2022-10-16T12:07:15;2.27;;;2.00;;
7432;SDS011;32233;49.500;7.764;2022-10-16T12:09:47;4.60;;;2.30;;
7432;SDS011;32233;49.500;7.764;2022-10-16T12:12:24;2.67;;;2.10;;
7432;SDS011;32233;49.500;7.764;2022-10-16T12:17:47;3.77;;;1.60;;
7432;SDS011;32233;49.500;7.764;2022-10-16T12:22:50;6.03;;;1.97;;
7432;SDS011;32233;49.500;7.764;2022-10-16T12:30:43;2.03;;;1.43;;
7432;SDS011;32233;49.500;7.764;2022-10-16T12:33:27;3.43;;;2.07;;
7432;SDS011;32233;49.500;7.764;2022-10-16T12:35:54;4.03;;;2.20;;
7432;SDS011;32233;49.500;7.764;2022-10-16T12:38:28;4.10;;;2.23;;
7432;SDS011;32233;49.500;7.764;2022-10-16T12:41:04;3.57;;;1.83;;
7432;SDS011;32233;49.500;7.764;2022-10-16T12:43:35;4.50;;;1.73;;
7432;SDS011;32233;49.500;7.764;2022-10-16T12:46:50;1.70;;;1.50;;
7432;SDS011;32233;49.500;7.764;2022-10-16T12:51:40;3.20;;;2.00;;
7432;SDS011;32233;49.500;7.764;2022-10-16T12:54:17;1.93;;;1.60;;
7432;SDS011;32233;49.500;7.764;2022-10-16T12:59:52;2.40;;;1.40;;
7432;SDS011;32233;49.500;7.764;2022-10-16T13:10:25;14.50;;;11.53;;
7432;SDS011;32233;49.500;7.764;2022-10-16T13:18:39;4.67;;;4.20;;
7432;SDS011;32233;49.500;7.764;2022-10-16T13:24:36;9.53;;;6.17;;
7432;SDS011;32233;49.500;7.764;2022-10-16T13:30:10;16.77;;;12.90;;
7432;SDS011;32233;49.500;7.764;2022-10-16T13:32:37;24.73;;;17.77;;
7432;SDS011;32233;49.500;7.764;2022-10-16T13:35:18;9.20;;;6.70;;
7432;SDS011;32233;49.500;7.764;2022-10-16T13:40:32;10.37;;;8.17;;
7432;SDS011;32233;49.500;7.764;2022-10-16T13:43:00;9.50;;;6.07;;
7432;SDS011;32233;49.500;7.764;2022-10-16T13:45:28;4.53;;;3.93;;
7432;SDS011;32233;49.500;7.764;2022-10-16T13:48:01;6.33;;;3.77;;
7432;SDS011;32233;49.500;7.764;2022-10-16T13:50:28;6.27;;;5.33;;
7432;SDS011;32233;49.500;7.764;2022-10-16T13:53:05;5.53;;;5.00;;
7432;SDS011;32233;49.500;7.764;2022-10-16T13:55:32;2.90;;;2.33;;
7432;SDS011;32233;49.500;7.764;2022-10-16T13:58:11;3.20;;;2.20;;
7432;SDS011;32233;49.500;7.764;2022-10-16T14:00:40;4.87;;;4.13;;
7432;SDS011;32233;49.500;7.764;2022-10-16T14:03:19;3.07;;;2.77;;
7432;SDS011;32233;49.500;7.764;2022-10-16T14:05:49;3.40;;;2.13;;
7432;SDS011;32233;49.500;7.764;2022-10-16T14:08:22;11.73;;;10.37;;
7432;SDS011;32233;49.500;7.764;2022-10-16T14:10:51;7.00;;;5.37;;
7432;SDS011;32233;49.500;7.764;2022-10-16T14:13:23;2.50;;;2.30;;
7432;SDS011;32233;49.500;7.764;2022-10-16T14:15:55;4.73;;;4.10;;
7432;SDS011;32233;49.500;7.764;2022-10-16T14:18:25;3.83;;;2.60;;
7432;SDS011;32233;49.500;7.764;2022-10-16T14:21:07;4.20;;;2.67;;
7432;SDS011;32233;49.500;7.764;2022-10-16T14:23:41;4.20;;;2.03;;
7432;SDS011;32233;49.500;7.764;2022-10-16T14:28:35;2.17;;;1.67;;
7432;SDS011;32233;49.500;7.764;2022-10-16T14:31:14;5.00;;;1.80;;
7432;SDS011;32233;49.500;7.764;2022-10-16T14:33:43;3.20;;;2.20;;
7432;SDS011;32233;49.500;7.764;2022-10-16T14:38:40;3.17;;;2.93;;
7432;SDS011;32233;49.500;7.764;2022-10-16T14:41:08;2.77;;;2.50;;
7432;SDS011;32233;49.500;7.764;2022-10-16T14:46:13;6.27;;;2.93;;
7432;SDS011;32233;49.500;7.764;2022-10-16T14:48:43;4.57;;;3.80;;
7432;SDS011;32233;49.500;7.764;2022-10-16T14:51:15;5.67;;;3.60;;
7432;SDS011;32233;49.500;7.764;2022-10-16T14:53:44;5.73;;;3.37;;
7432;SDS011;32233;49.500;7.764;2022-10-16T14:56:17;4.57;;;3.33;;
7432;SDS011;32233;49.500;7.764;2022-10-16T14:58:46;7.43;;;3.07;;
7432;SDS011;32233;49.500;7.764;2022-10-16T15:01:13;5.37;;;3.17;;
7432;SDS011;32233;49.500;7.764;2022-10-16T15:03:40;4.90;;;3.40;;
7432;SDS011;32233;49.500;7.764;2022-10-16T15:06:10;9.43;;;8.17;;
7432;SDS011;32233;49.500;7.764;2022-10-16T15:08:38;6.07;;;5.47;;
7432;SDS011;32233;49.500;7.764;2022-10-16T15:11:07;7.27;;;6.37;;
7432;SDS011;32233;49.500;7.764;2022-10-16T15:13:38;5.97;;;4.33;;
7432;SDS011;32233;49.500;7.764;2022-10-16T15:16:07;5.50;;;3.70;;
7432;SDS011;32233;49.500;7.764;2022-10-16T15:18:37;8.77;;;5.30;;
7432;SDS011;32233;49.500;7.764;2022-10-16T15:21:03;8.33;;;5.20;;
7432;SDS011;32233;49.500;7.764;2022-10-16T15:23:30;9.13;;;5.40;;
7432;SDS011;32233;49.500;7.764;2022-10-16T15:25:56;4.60;;;4.20;;
7432;SDS011;32233;49.500;7.764;2022-10-16T15:28:23;8.60;;;4.47;;
7432;SDS011;32233;49.500;7.764;2022-10-16T15:30:53;6.10;;;5.60;;
7432;SDS011;32233;49.500;7.764;2022-10-16T15:33:22;18.53;;;16.40;;
7432;SDS011;32233;49.500;7.764;2022-10-16T15:35:53;9.00;;;7.57;;
7432;SDS011;32233;49.500;7.764;2022-10-16T15:38:20;9.30;;;8.30;;
7432;SDS011;32233;49.500;7.764;2022-10-16T15:40:48;6.63;;;6.10;;
7432;SDS011;32233;49.500;7.764;2022-10-16T15:43:15;5.80;;;5.20;;
7432;SDS011;32233;49.500;7.764;2022-10-16T15:45:42;5.63;;;5.10;;
7432;SDS011;32233;49.500;7.764;2022-10-16T15:48:10;6.50;;;4.80;;
7432;SDS011;32233;49.500;7.764;2022-10-16T15:50:38;7.87;;;4.73;;
7432;SDS011;32233;49.500;7.764;2022-10-16T15:53:05;4.50;;;4.10;;
7432;SDS011;32233;49.500;7.764;2022-10-16T15:55:31;11.90;;;4.17;;
7432;SDS011;32233;49.500;7.764;2022-10-16T15:58:00;7.70;;;4.53;;
7432;SDS011;32233;49.500;7.764;2022-10-16T16:00:26;11.63;;;7.70;;
7432;SDS011;32233;49.500;7.764;2022-10-16T16:02:53;11.20;;;8.23;;
7432;SDS011;32233;49.500;7.764;2022-10-16T16:05:20;8.57;;;7.30;;
7432;SDS011;32233;49.500;7.764;2022-10-16T16:07:48;8.90;;;7.37;;
7432;SDS011;32233;49.500;7.764;2022-10-16T16:10:15;7.97;;;5.87;;
7432;SDS011;32233;49.500;7.764;2022-10-16T16:12:42;7.47;;;6.10;;
7432;SDS011;32233;49.500;7.764;2022-10-16T16:15:09;9.03;;;6.07;;
7432;SDS011;32233;49.500;7.764;2022-10-16T16:17:36;5.77;;;4.50;;
7432;SDS011;32233;49.500;7.764;2022-10-16T16:20:03;6.87;;;4.87;;
7432;SDS011;32233;49.500;7.764;2022-10-16T16:22:31;4.70;;;4.20;;
7432;SDS011;32233;49.500;7.764;2022-10-16T16:24:57;8.83;;;4.90;;
7432;SDS011;32233;49.500;7.764;2022-10-16T16:27:23;5.17;;;3.73;;
7432;SDS011;32233;49.500;7.764;2022-10-16T16:29:56;6.87;;;5.50;;
7432;SDS011;32233;49.500;7.764;2022-10-16T16:32:22;13.37;;;7.03;;
7432;SDS011;32233;49.500;7.764;2022-10-16T16:34:49;9.90;;;6.33;;
7432;SDS011;32233;49.500;7.764;2022-10-16T16:37:15;6.10;;;5.47;;
7432;SDS011;32233;49.500;7.764;2022-10-16T16:39:42;9.93;;;5.07;;
7432;SDS011;32233;49.500;7.764;2022-10-16T16:42:08;7.40;;;4.53;;
7432;SDS011;32233;49.500;7.764;2022-10-16T16:44:36;7.60;;;5.00;;
7432;SDS011;32233;49.500;7.764;2022-10-16T16:47:04;8.20;;;4.90;;
7432;SDS011;32233;49.500;7.764;2022-10-16T16:49:30;7.10;;;4.77;;
7432;SDS011;32233;49.500;7.764;2022-10-16T16:51:58;9.13;;;5.10;;
7432;SDS011;32233;49.500;7.764;2022-10-16T16:54:24;10.17;;;5.10;;
7432;SDS011;32233;49.500;7.764;2022-10-16T16:56:51;10.00;;;5.23;;
7432;SDS011;32233;49.500;7.764;2022-10-16T16:59:18;8.07;;;4.83;;
7432;SDS011;32233;49.500;7.764;2022-10-16T17:01:48;13.30;;;4.93;;
7432;SDS011;32233;49.500;7.764;2022-10-16T17:04:22;9.53;;;6.17;;
7432;SDS011;32233;49.500;7.764;2022-10-16T17:06:48;8.43;;;4.83;;
7432;SDS011;32233;49.500;7.764;2022-10-16T17:09:15;6.37;;;4.70;;
7432;SDS011;32233;49.500;7.764;2022-10-16T17:11:41;9.20;;;4.90;;
7432;SDS011;32233;49.500;7.764;2022-10-16T17:14:10;7.13;;;5.43;;
7432;SDS011;32233;49.500;7.764;2022-10-16T17:16:38;7.40;;;4.97;;
7432;SDS011;32233;49.500;7.764;2022-10-16T17:19:06;6.93;;;5.37;;
7432;SDS011;32233;49.500;7.764;2022-10-16T17:21:34;7.80;;;5.03;;
7432;SDS011;32233;49.500;7.764;2022-10-16T17:24:01;10.83;;;5.63;;